createdAt,value
2023-04-02T00:00:46.112Z,57.00
2023-04-02T00:01:46.164Z,56.87
2023-04-02T00:02:46.153Z,56.77
2023-04-02T00:03:46.234Z,56.85
2023-04-02T00:04:46.140Z,56.79
2023-04-02T00:05:46.154Z,56.74
2023-04-02T00:06:46.120Z,56.85
2023-04-02T00:07:46.128Z,56.78
2023-04-02T00:08:46.122Z,56.80
2023-04-02T00:09:46.168Z,56.92
2023-04-02T00:10:46.138Z,57.13
2023-04-02T00:11:46.123Z,57.12
2023-04-02T00:12:46.146Z,56.89
2023-04-02T00:13:46.120Z,56.89
2023-04-02T00:14:46.172Z,56.79
2023-04-02T00:15:46.115Z,57.14
2023-04-02T00:16:46.244Z,57.19
2023-04-02T00:17:46.218Z,57.05
2023-04-02T00:18:46.139Z,56.71
2023-04-02T00:19:46.120Z,56.76
2023-04-02T00:20:46.120Z,56.69
2023-04-02T00:21:46.119Z,56.76
2023-04-02T00:22:47.268Z,56.65
2023-04-02T00:23:46.155Z,56.60
2023-04-02T00:24:46.126Z,56.72
2023-04-02T00:25:46.131Z,56.64
2023-04-02T00:26:46.118Z,57.49
2023-04-02T00:27:46.146Z,57.35
2023-04-02T00:28:46.165Z,56.97
2023-04-02T00:29:46.118Z,56.71
2023-04-02T00:30:46.117Z,56.65
2023-04-02T00:31:46.203Z,57.52
2023-04-02T00:32:47.320Z,57.75
2023-04-02T00:33:46.189Z,57.24
2023-04-02T00:34:46.117Z,57.28
2023-04-02T00:35:46.126Z,57.35
2023-04-02T00:36:46.127Z,57.08
2023-04-02T00:37:46.126Z,56.97
2023-04-02T00:38:47.552Z,56.75
2023-04-02T00:39:46.161Z,56.93
2023-04-02T00:40:46.128Z,56.67
2023-04-02T00:41:46.119Z,56.43
2023-04-02T00:42:46.141Z,56.42
2023-04-02T00:43:46.113Z,56.29
2023-04-02T00:44:46.146Z,56.16
2023-04-02T00:45:46.139Z,56.03
2023-04-02T00:46:46.114Z,56.46
2023-04-02T00:47:46.155Z,56.83
2023-04-02T00:48:46.115Z,56.38
2023-04-02T00:49:46.111Z,56.37
2023-04-02T00:50:46.121Z,56.33
2023-04-02T00:51:46.131Z,56.53
2023-04-02T00:52:46.146Z,56.39
2023-04-02T00:53:46.130Z,56.41
2023-04-02T00:54:46.137Z,56.21
2023-04-02T00:55:46.157Z,56.13
2023-04-02T00:56:46.182Z,55.97
2023-04-02T00:57:46.179Z,56.21
2023-04-02T00:58:46.162Z,56.16
2023-04-02T00:59:46.180Z,56.21
2023-04-02T01:00:46.203Z,56.35
2023-04-02T01:01:46.306Z,56.41
2023-04-02T01:02:46.253Z,56.55
2023-04-02T01:03:46.280Z,56.45
2023-04-02T01:04:46.216Z,56.14
2023-04-02T01:05:46.233Z,56.11
2023-04-02T01:06:46.311Z,56.18
2023-04-02T01:07:46.228Z,56.18
2023-04-02T01:08:46.248Z,56.46
2023-04-02T01:09:46.267Z,56.07
2023-04-02T01:10:46.246Z,56.21
2023-04-02T01:11:46.256Z,56.42
2023-04-02T01:12:46.286Z,56.32
2023-04-02T01:13:46.255Z,55.83
2023-04-02T01:14:46.263Z,56.18
2023-04-02T01:15:46.309Z,56.52
2023-04-02T01:16:46.335Z,56.59
2023-04-02T01:17:46.386Z,56.68
2023-04-02T01:18:46.384Z,56.63
2023-04-02T01:19:46.336Z,57.28
2023-04-02T01:20:46.354Z,57.09
2023-04-02T01:21:46.410Z,57.16
2023-04-02T01:22:46.491Z,57.14
2023-04-02T01:23:46.545Z,57.21
2023-04-02T01:24:46.619Z,57.18
2023-04-02T01:25:46.657Z,57.25
2023-04-02T01:26:46.698Z,57.13
2023-04-02T01:27:46.763Z,57.13
2023-04-02T01:28:46.807Z,57.23
2023-04-02T01:29:46.849Z,57.27
2023-04-02T01:30:46.908Z,57.29
2023-04-02T01:31:46.983Z,57.18
2023-04-02T01:32:47.108Z,57.22
2023-04-02T01:33:47.070Z,57.26
2023-04-02T01:34:47.170Z,56.95
2023-04-02T01:35:47.271Z,57.02
2023-04-02T01:36:47.297Z,57.30
2023-04-02T01:37:47.358Z,58.14
2023-04-02T01:38:47.403Z,58.18
2023-04-02T01:39:47.457Z,57.80
2023-04-02T01:40:47.522Z,57.61
2023-04-02T01:41:47.566Z,57.49
2023-04-02T01:42:47.622Z,57.32
2023-04-02T01:43:47.692Z,56.88
2023-04-02T01:44:47.747Z,56.83
2023-04-02T01:45:47.812Z,57.89
2023-04-02T01:46:47.916Z,58.06
2023-04-02T01:47:47.939Z,58.83
2023-04-02T01:48:47.969Z,59.37
2023-04-02T01:49:47.984Z,58.70
2023-04-02T01:50:48.037Z,58.25
2023-04-02T01:51:48.054Z,57.89
2023-04-02T01:52:48.082Z,57.57
2023-04-02T01:53:48.122Z,57.40
2023-04-02T01:54:48.160Z,57.37
2023-04-02T01:55:48.181Z,57.18
2023-04-02T01:56:48.216Z,56.97
2023-04-02T01:57:48.230Z,57.06
2023-04-02T01:58:48.304Z,57.29
2023-04-02T01:59:48.343Z,57.18
2023-04-02T02:00:48.393Z,57.30
2023-04-02T02:01:48.516Z,57.31
2023-04-02T02:02:48.584Z,57.27
2023-04-02T02:03:48.608Z,57.64
2023-04-02T02:04:48.683Z,57.79
2023-04-02T02:05:48.694Z,57.47
2023-04-02T02:06:48.729Z,57.30
2023-04-02T02:07:48.778Z,57.27
2023-04-02T02:08:48.878Z,57.30
2023-04-02T02:09:48.890Z,57.21
2023-04-02T02:10:48.936Z,57.14
2023-04-02T02:11:48.978Z,57.08
2023-04-02T02:12:49.023Z,57.00
2023-04-02T02:13:49.072Z,56.97
2023-04-02T02:14:49.108Z,57.25
2023-04-02T02:15:49.167Z,57.03
2023-04-02T02:16:49.308Z,57.18
2023-04-02T02:17:49.320Z,57.08
2023-04-02T02:18:49.367Z,56.97
2023-04-02T02:19:49.439Z,57.12
2023-04-02T02:20:49.485Z,57.20
2023-04-02T02:21:49.513Z,57.46
2023-04-02T02:22:49.623Z,57.51
2023-04-02T02:23:49.653Z,57.62
2023-04-02T02:24:49.708Z,57.71
2023-04-02T02:25:49.767Z,57.80
2023-04-02T02:26:49.815Z,57.95
2023-04-02T02:27:49.875Z,58.22
2023-04-02T02:28:49.933Z,58.52
2023-04-02T02:29:49.953Z,58.43
2023-04-02T02:30:50.002Z,58.62
2023-04-02T02:31:50.129Z,58.64
2023-04-02T02:32:50.108Z,58.17
2023-04-02T02:33:50.139Z,58.16
2023-04-02T02:34:50.182Z,58.38
2023-04-02T02:35:50.231Z,58.23
2023-04-02T02:36:50.277Z,57.88
2023-04-02T02:37:50.311Z,57.77
2023-04-02T02:38:50.390Z,57.91
2023-04-02T02:39:50.425Z,58.16
2023-04-02T02:40:50.525Z,58.24
2023-04-02T02:41:50.582Z,58.28
2023-04-02T02:42:50.672Z,58.33
2023-04-02T02:43:50.734Z,58.54
2023-04-02T02:44:50.812Z,58.55
2023-04-02T02:45:50.906Z,58.58
2023-04-02T02:46:50.909Z,58.90
2023-04-02T02:47:50.999Z,58.60
2023-04-02T02:48:51.047Z,58.27
2023-04-02T02:49:51.123Z,58.46
2023-04-02T02:50:51.190Z,58.48
2023-04-02T02:51:51.256Z,58.44
2023-04-02T02:52:51.357Z,59.19
2023-04-02T02:53:51.360Z,59.76
2023-04-02T02:54:51.412Z,59.59
2023-04-02T02:55:51.454Z,59.24
2023-04-02T02:56:51.524Z,58.76
2023-04-02T02:57:51.569Z,58.60
2023-04-02T02:58:51.605Z,58.55
2023-04-02T02:59:51.665Z,58.47
2023-04-02T03:00:51.722Z,58.53
2023-04-02T03:01:51.787Z,58.67
2023-04-02T03:02:51.996Z,58.65
2023-04-02T03:03:51.985Z,58.76
2023-04-02T03:04:51.928Z,58.98
2023-04-02T03:05:51.973Z,58.89
2023-04-02T03:06:52.016Z,58.90
2023-04-02T03:07:52.057Z,58.94
2023-04-02T03:08:52.143Z,59.11
2023-04-02T03:09:52.165Z,59.00
2023-04-02T03:10:52.233Z,59.01
2023-04-02T03:11:52.277Z,58.92
2023-04-02T03:12:52.342Z,59.12
2023-04-02T03:13:52.415Z,58.89
2023-04-02T03:14:52.483Z,58.73
2023-04-02T03:15:52.598Z,58.59
2023-04-02T03:16:52.620Z,58.53
2023-04-02T03:17:52.758Z,58.65
2023-04-02T03:18:52.755Z,58.79
2023-04-02T03:19:52.820Z,58.70
2023-04-02T03:20:52.891Z,58.87
2023-04-02T03:21:52.943Z,58.98
2023-04-02T03:22:53.001Z,59.43
2023-04-02T03:23:53.059Z,59.16
2023-04-02T03:24:53.147Z,59.18
2023-04-02T03:25:53.170Z,58.97
2023-04-02T03:26:53.243Z,59.03
2023-04-02T03:27:53.295Z,58.56
2023-04-02T03:28:53.359Z,58.50
2023-04-02T03:29:53.430Z,58.56
2023-04-02T03:30:53.539Z,58.21
2023-04-02T03:31:53.553Z,58.25
2023-04-02T03:32:53.645Z,58.12
2023-04-02T03:33:53.638Z,58.18
2023-04-02T03:34:53.685Z,58.34
2023-04-02T03:35:53.748Z,58.36
2023-04-02T03:36:53.769Z,58.30
2023-04-02T03:37:53.814Z,58.30
2023-04-02T03:38:53.860Z,58.33
2023-04-02T03:39:53.922Z,58.37
2023-04-02T03:40:54.022Z,58.29
2023-04-02T03:41:54.057Z,58.33
2023-04-02T03:42:54.135Z,58.47
2023-04-02T03:43:54.219Z,58.14
2023-04-02T03:44:54.298Z,58.06
2023-04-02T03:45:54.350Z,58.09
2023-04-02T03:46:54.448Z,58.33
2023-04-02T03:47:54.515Z,58.35
2023-04-02T03:48:54.569Z,58.31
2023-04-02T03:49:54.609Z,58.41
2023-04-02T03:50:54.692Z,58.45
2023-04-02T03:51:54.746Z,58.46
2023-04-02T03:52:54.778Z,58.50
2023-04-02T03:53:54.829Z,58.89
2023-04-02T03:54:54.862Z,58.66
2023-04-02T03:55:54.907Z,58.49
2023-04-02T03:56:55.056Z,58.49
2023-04-02T03:57:54.974Z,58.59
2023-04-02T03:58:55.002Z,58.80
2023-04-02T03:59:55.026Z,58.65
2023-04-02T04:00:55.045Z,58.47
2023-04-02T04:01:55.129Z,58.53
2023-04-02T04:02:55.160Z,58.67
2023-04-02T04:03:55.122Z,58.59
2023-04-02T04:04:55.138Z,58.89
2023-04-02T04:05:55.174Z,59.16
2023-04-02T04:06:55.192Z,59.47
2023-04-02T04:07:55.229Z,59.62
2023-04-02T04:08:55.269Z,59.54
2023-04-02T04:09:55.325Z,59.56
2023-04-02T04:10:55.378Z,59.51
2023-04-02T04:11:55.378Z,59.68
2023-04-02T04:12:55.429Z,59.72
2023-04-02T04:13:55.434Z,59.71
2023-04-02T04:14:55.496Z,59.67
2023-04-02T04:15:55.525Z,59.88
2023-04-02T04:16:55.699Z,59.91
2023-04-02T04:17:55.577Z,59.91
2023-04-02T04:18:55.577Z,59.87
2023-04-02T04:19:55.622Z,59.77
2023-04-02T04:20:55.671Z,60.63
2023-04-02T04:21:55.697Z,61.14
2023-04-02T04:22:55.921Z,61.60
2023-04-02T04:23:55.769Z,61.33
2023-04-02T04:24:55.811Z,60.96
2023-04-02T04:25:55.855Z,61.21
2023-04-02T04:26:55.874Z,61.08
2023-04-02T04:27:55.908Z,60.96
2023-04-02T04:28:55.958Z,60.92
2023-04-02T04:29:55.953Z,60.85
2023-04-02T04:30:55.981Z,60.73
2023-04-02T04:31:56.183Z,60.77
2023-04-02T04:32:56.062Z,60.43
2023-04-02T04:33:56.039Z,60.45
2023-04-02T04:34:56.055Z,60.31
2023-04-02T04:35:56.154Z,60.01
2023-04-02T04:36:56.109Z,60.01
2023-04-02T04:37:56.130Z,60.06
2023-04-02T04:38:56.153Z,59.93
2023-04-02T04:39:56.181Z,59.79
2023-04-02T04:40:56.203Z,59.79
2023-04-02T04:41:56.250Z,59.64
2023-04-02T04:42:56.280Z,59.66
2023-04-02T04:43:56.320Z,59.91
2023-04-02T04:44:56.372Z,60.12
2023-04-02T04:45:56.426Z,59.57
2023-04-02T04:46:56.418Z,59.50
2023-04-02T04:47:56.508Z,59.55
2023-04-02T04:48:56.454Z,59.44
2023-04-02T04:49:56.503Z,59.34
2023-04-02T04:50:56.522Z,59.51
2023-04-02T04:51:56.560Z,59.56
2023-04-02T04:52:56.754Z,59.53
2023-04-02T04:53:56.626Z,59.44
2023-04-02T04:54:56.658Z,59.59
2023-04-02T04:55:59.678Z,59.90
2023-04-02T04:56:56.718Z,59.89
2023-04-02T04:57:56.717Z,59.85
2023-04-02T04:58:56.724Z,59.88
2023-04-02T04:59:56.732Z,60.36
2023-04-02T05:00:56.760Z,60.13
2023-04-02T05:01:56.796Z,59.93
2023-04-02T05:02:56.773Z,59.80
2023-04-02T05:03:56.793Z,59.59
2023-04-02T05:04:56.878Z,59.44
2023-04-02T05:05:56.794Z,59.22
2023-04-02T05:06:56.823Z,59.10
2023-04-02T05:07:57.929Z,59.18
2023-04-02T05:08:56.861Z,59.13
2023-04-02T05:09:56.886Z,59.24
2023-04-02T05:10:56.905Z,59.26
2023-04-02T05:11:56.948Z,59.19
2023-04-02T05:12:56.953Z,59.52
2023-04-02T05:13:56.968Z,59.47
2023-04-02T05:14:57.017Z,59.15
2023-04-02T05:15:57.776Z,59.29
2023-04-02T05:16:57.076Z,59.13
2023-04-02T05:17:57.088Z,58.68
2023-04-02T05:18:57.094Z,59.31
2023-04-02T05:19:57.130Z,59.07
2023-04-02T05:20:57.124Z,59.45
2023-04-02T05:21:57.159Z,60.07
2023-04-02T05:22:57.177Z,60.45
2023-04-02T05:23:57.211Z,59.47
2023-04-02T05:24:57.253Z,59.48
2023-04-02T05:25:57.263Z,59.30
2023-04-02T05:26:57.299Z,59.57
2023-04-02T05:27:57.326Z,59.91
2023-04-02T05:28:57.387Z,60.01
2023-04-02T05:29:57.383Z,59.67
2023-04-02T05:30:56.487Z,59.52
2023-04-02T05:31:57.449Z,59.35
2023-04-02T05:32:57.623Z,59.21
2023-04-02T05:33:57.508Z,59.10
2023-04-02T05:34:57.528Z,59.36
2023-04-02T05:35:57.643Z,59.15
2023-04-02T05:36:57.582Z,58.94
2023-04-02T05:37:57.609Z,59.41
2023-04-02T05:38:57.647Z,59.04
2023-04-02T05:39:57.655Z,59.18
2023-04-02T05:40:57.668Z,59.09
2023-04-02T05:41:57.693Z,59.01
2023-04-02T05:42:57.712Z,59.01
2023-04-02T05:43:57.730Z,59.03
2023-04-02T05:44:57.738Z,59.01
2023-04-02T05:45:57.752Z,58.97
2023-04-02T05:46:57.810Z,59.19
2023-04-02T05:47:57.825Z,59.12
2023-04-02T05:48:57.828Z,58.97
2023-04-02T05:49:57.810Z,59.03
2023-04-02T05:50:57.826Z,59.12
2023-04-02T05:51:57.926Z,59.13
2023-04-02T05:52:57.864Z,59.07
2023-04-02T05:53:57.914Z,59.09
2023-04-02T05:54:57.946Z,59.23
2023-04-02T05:55:58.008Z,59.27
2023-04-02T05:56:58.038Z,59.28
2023-04-02T05:58:17.704Z,59.32
2023-04-02T05:58:58.317Z,59.36
2023-04-02T05:59:58.077Z,59.38
2023-04-02T06:00:58.087Z,59.51
2023-04-02T06:01:58.162Z,59.21
2023-04-02T06:02:58.182Z,59.58
2023-04-02T06:03:58.171Z,59.21
2023-04-02T06:04:58.149Z,59.22
2023-04-02T06:05:58.124Z,59.09
2023-04-02T06:06:58.127Z,58.92
2023-04-02T06:07:58.152Z,58.81
2023-04-02T06:08:58.149Z,58.70
2023-04-02T06:09:58.155Z,58.79
2023-04-02T06:10:58.176Z,59.30
2023-04-02T06:11:58.168Z,58.92
2023-04-02T06:12:58.175Z,58.80
2023-04-02T06:13:58.202Z,58.82
2023-04-02T06:14:58.203Z,58.92
2023-04-02T06:15:58.217Z,58.86
2023-04-02T06:16:58.279Z,58.89
2023-04-02T06:17:58.279Z,58.96
2023-04-02T06:18:58.258Z,59.15
2023-04-02T06:19:58.263Z,59.22
2023-04-02T06:20:58.319Z,59.30
2023-04-02T06:21:58.288Z,59.20
2023-04-02T06:22:58.291Z,59.21
2023-04-02T06:23:58.308Z,59.14
2023-04-02T06:24:58.312Z,58.83
2023-04-02T06:25:58.347Z,58.79
2023-04-02T06:26:58.409Z,58.80
2023-04-02T06:27:58.491Z,58.75
2023-04-02T06:28:58.537Z,58.62
2023-04-02T06:29:58.582Z,58.35
2023-04-02T06:30:58.694Z,58.08
2023-04-02T06:31:58.674Z,57.95
2023-04-02T06:32:58.757Z,57.43
2023-04-02T06:33:58.732Z,57.50
2023-04-02T06:34:58.771Z,57.41
2023-04-02T06:35:58.845Z,57.26
2023-04-02T06:36:58.823Z,56.97
2023-04-02T06:37:58.825Z,56.95
2023-04-02T06:38:58.841Z,56.84
2023-04-02T06:39:58.857Z,56.59
2023-04-02T06:40:59.176Z,56.61
2023-04-02T06:41:58.844Z,56.44
2023-04-02T06:42:58.864Z,56.53
2023-04-02T06:43:58.889Z,56.48
2023-04-02T06:44:58.848Z,56.34
2023-04-02T06:45:58.941Z,56.39
2023-04-02T06:46:58.847Z,56.32
2023-04-02T06:47:58.968Z,56.20
2023-04-02T06:48:58.838Z,56.24
2023-04-02T06:49:58.833Z,56.12
2023-04-02T06:50:58.835Z,56.05
2023-04-02T06:51:58.844Z,56.06
2023-04-02T06:52:58.924Z,56.04
2023-04-02T06:53:58.936Z,55.81
2023-04-02T06:54:58.980Z,55.51
2023-04-02T06:55:58.980Z,55.26
2023-04-02T06:56:59.081Z,55.22
2023-04-02T06:57:59.053Z,55.19
2023-04-02T06:58:59.104Z,55.01
2023-04-02T06:59:59.149Z,54.92
2023-04-02T07:00:59.200Z,54.57
2023-04-02T07:01:59.262Z,54.63
2023-04-02T07:02:59.319Z,54.16
2023-04-02T07:03:59.361Z,54.03
2023-04-02T07:04:59.426Z,54.52
2023-04-02T07:05:59.445Z,54.41
2023-04-02T07:06:59.476Z,54.43
2023-04-02T07:07:59.524Z,54.48
2023-04-02T07:08:59.583Z,54.21
2023-04-02T07:09:59.586Z,53.85
2023-04-02T07:10:59.609Z,54.04
2023-04-02T07:11:59.626Z,54.11
2023-04-02T07:12:59.644Z,53.63
2023-04-02T07:13:59.692Z,53.57
2023-04-02T07:14:59.709Z,53.59
2023-04-02T07:15:59.787Z,53.25
2023-04-02T07:16:59.760Z,52.67
2023-04-02T07:17:59.811Z,52.60
2023-04-02T07:18:59.802Z,52.38
2023-04-02T07:20:00.229Z,52.63
2023-04-02T07:20:59.857Z,51.93
2023-04-02T07:21:59.875Z,51.90
2023-04-02T07:22:59.912Z,51.61
2023-04-02T07:23:59.924Z,51.00
2023-04-02T07:25:00.023Z,51.02
2023-04-02T07:25:59.999Z,51.17
2023-04-02T07:27:00.031Z,50.88
2023-04-02T07:28:00.060Z,51.11
2023-04-02T07:29:00.031Z,50.96
2023-04-02T07:30:00.030Z,50.98
2023-04-02T07:31:00.005Z,50.79
2023-04-02T07:31:59.976Z,50.69
2023-04-02T07:32:59.984Z,51.35
2023-04-02T07:33:58.921Z,51.63
2023-04-02T07:34:59.942Z,50.72
2023-04-02T07:36:00.005Z,50.16
2023-04-02T07:37:00.009Z,50.14
2023-04-02T07:38:00.021Z,50.27
2023-04-02T07:39:00.040Z,48.64
2023-04-02T07:40:00.017Z,48.24
2023-04-02T07:41:00.105Z,48.27
2023-04-02T07:42:00.080Z,48.07
2023-04-02T07:43:00.074Z,47.87
2023-04-02T07:44:00.079Z,47.67
2023-04-02T07:45:00.144Z,47.65
2023-04-02T07:46:00.170Z,47.40
2023-04-02T07:47:00.303Z,47.34
2023-04-02T07:48:00.231Z,47.50
2023-04-02T07:49:00.188Z,47.67
2023-04-02T07:50:00.205Z,47.87
2023-04-02T07:51:00.208Z,47.87
2023-04-02T07:52:00.203Z,48.33
2023-04-02T07:53:00.175Z,48.32
2023-04-02T07:54:00.162Z,47.84
2023-04-02T07:55:00.157Z,47.27
2023-04-02T07:56:00.144Z,47.25
2023-04-02T07:57:00.210Z,46.84
2023-04-02T07:58:00.180Z,46.68
2023-04-02T07:59:00.156Z,46.81
2023-04-02T08:00:00.178Z,47.20
2023-04-02T08:01:00.162Z,46.27
2023-04-02T08:02:00.215Z,45.37
2023-04-02T08:03:00.201Z,45.51
2023-04-02T08:04:00.169Z,45.38
2023-04-02T08:05:00.073Z,45.60
2023-04-02T08:06:00.040Z,45.77
2023-04-02T08:06:59.986Z,46.63
2023-04-02T08:07:59.952Z,46.10
2023-04-02T08:08:59.870Z,46.00
2023-04-02T08:09:59.823Z,45.95
2023-04-02T08:10:59.802Z,45.57
2023-04-02T08:11:59.742Z,45.12
2023-04-02T08:12:59.715Z,44.90
2023-04-02T08:13:59.681Z,45.66
2023-04-02T08:15:00.028Z,44.46
2023-04-02T08:15:59.639Z,45.00
2023-04-02T08:16:59.729Z,45.23
2023-04-02T08:17:59.685Z,45.06
2023-04-02T08:18:59.668Z,45.03
2023-04-02T08:19:59.663Z,45.16
2023-04-02T08:20:59.694Z,45.20
2023-04-02T08:21:59.665Z,45.13
2023-04-02T08:22:59.680Z,45.53
2023-04-02T08:23:59.702Z,44.96
2023-04-02T08:24:59.668Z,44.54
2023-04-02T08:25:59.640Z,44.63
2023-04-02T08:26:59.618Z,45.32
2023-04-02T08:27:59.572Z,45.72
2023-04-02T08:28:59.566Z,45.16
2023-04-02T08:29:59.498Z,44.94
2023-04-02T08:30:59.527Z,44.77
2023-04-02T08:31:59.448Z,45.66
2023-04-02T08:32:59.468Z,45.34
2023-04-02T08:33:59.393Z,45.26
2023-04-02T08:35:00.452Z,45.25
2023-04-02T08:35:59.404Z,45.07
2023-04-02T08:36:59.312Z,44.63
2023-04-02T08:37:59.270Z,44.55
2023-04-02T08:38:59.256Z,44.62
2023-04-02T08:39:59.268Z,43.88
2023-04-02T08:40:59.282Z,44.11
2023-04-02T08:41:59.241Z,43.76
2023-04-02T08:42:59.192Z,44.22
2023-04-02T08:43:59.177Z,43.72
2023-04-02T08:44:59.228Z,44.63
2023-04-02T08:45:59.213Z,43.85
2023-04-02T08:46:59.189Z,43.28
2023-04-02T08:47:59.247Z,43.28
2023-04-02T08:48:59.169Z,43.10
2023-04-02T08:49:59.116Z,42.95
2023-04-02T08:50:59.072Z,42.21
2023-04-02T08:51:59.053Z,41.99
2023-04-02T08:52:59.019Z,41.60
2023-04-02T08:53:58.954Z,41.45
2023-04-02T08:54:58.914Z,40.99
2023-04-02T08:55:58.889Z,41.18
2023-04-02T08:56:58.858Z,40.66
2023-04-02T08:57:58.766Z,40.18
2023-04-02T08:58:58.737Z,39.74
2023-04-02T08:59:58.720Z,40.07
2023-04-02T09:00:58.740Z,39.72
2023-04-02T09:01:58.818Z,39.80
2023-04-02T09:02:58.723Z,39.83
2023-04-02T09:03:58.690Z,39.17
2023-04-02T09:04:58.677Z,38.41
2023-04-02T09:05:58.652Z,38.20
2023-04-02T09:06:58.695Z,38.07
2023-04-02T09:07:58.641Z,37.87
2023-04-02T09:08:58.634Z,38.83
2023-04-02T09:09:58.656Z,38.70
2023-04-02T09:10:58.625Z,38.62
2023-04-02T09:11:58.616Z,38.56
2023-04-02T09:12:58.616Z,38.13
2023-04-02T09:13:58.578Z,38.08
2023-04-02T09:14:58.706Z,37.68
2023-04-02T09:15:58.554Z,38.24
2023-04-02T09:16:58.548Z,37.75
2023-04-02T09:17:59.612Z,37.65
2023-04-02T09:18:58.505Z,37.83
2023-04-02T09:19:58.489Z,37.61
2023-04-02T09:20:58.474Z,38.28
2023-04-02T09:21:58.445Z,38.13
2023-04-02T09:22:58.430Z,38.41
2023-04-02T09:23:58.410Z,37.95
2023-04-02T09:24:58.393Z,38.00
2023-04-02T09:26:04.121Z,37.42
2023-04-02T09:26:58.324Z,37.07
2023-04-02T09:27:58.241Z,37.47
2023-04-02T09:28:58.166Z,37.22
2023-04-02T09:29:57.091Z,37.08
2023-04-02T09:30:58.024Z,37.18
2023-04-02T09:31:58.053Z,37.06
2023-04-02T09:32:58.001Z,36.91
2023-04-02T09:33:57.852Z,36.81
2023-04-02T09:34:57.764Z,36.44
2023-04-02T09:35:57.882Z,36.57
2023-04-02T09:36:57.637Z,36.42
2023-04-02T09:37:57.554Z,36.22
2023-04-02T09:38:57.558Z,35.87
2023-04-02T09:39:57.507Z,35.58
2023-04-02T09:40:57.473Z,35.64
2023-04-02T09:42:05.148Z,35.59
2023-04-02T09:42:57.374Z,34.62
2023-04-02T09:43:57.513Z,34.74
2023-04-02T09:44:57.210Z,34.44
2023-04-02T09:45:57.122Z,33.81
2023-04-02T09:46:57.083Z,33.46
2023-04-02T09:47:57.033Z,32.75
2023-04-02T09:48:56.936Z,33.27
2023-04-02T09:49:56.846Z,33.33
2023-04-02T09:50:56.752Z,33.58
2023-04-02T09:51:56.678Z,33.58
2023-04-02T09:52:56.612Z,33.99
2023-04-02T09:53:56.552Z,33.76
2023-04-02T09:54:56.513Z,34.55
2023-04-02T09:55:56.411Z,34.88
2023-04-02T09:56:56.360Z,35.05
2023-04-02T09:57:56.282Z,35.62
2023-04-02T09:58:56.215Z,35.55
2023-04-02T09:59:56.143Z,35.28
2023-04-02T10:00:56.089Z,35.28
2023-04-02T10:01:56.065Z,35.42
2023-04-02T10:02:55.910Z,35.71
2023-04-02T10:03:55.841Z,35.77
2023-04-02T10:04:55.764Z,36.33
2023-04-02T10:05:55.660Z,36.15
2023-04-02T10:06:55.597Z,35.69
2023-04-02T10:07:55.551Z,35.38
2023-04-02T10:08:55.538Z,36.76
2023-04-02T10:09:55.488Z,36.23
2023-04-02T10:10:55.476Z,35.95
2023-04-02T10:11:55.448Z,36.17
2023-04-02T10:12:55.400Z,35.84
2023-04-02T10:13:55.372Z,37.93
2023-04-02T10:14:55.331Z,35.37
2023-04-02T10:15:55.286Z,36.29
2023-04-02T10:16:55.290Z,37.26
2023-04-02T10:17:55.234Z,36.22
2023-04-02T10:18:55.224Z,35.93
2023-04-02T10:19:55.191Z,36.22
2023-04-02T10:20:55.160Z,37.03
2023-04-02T10:21:55.088Z,36.05
2023-04-02T10:22:55.076Z,37.59
2023-04-02T10:23:55.106Z,36.91
2023-04-02T10:24:55.100Z,36.80
2023-04-02T10:25:55.068Z,37.80
2023-04-02T10:26:55.076Z,37.35
2023-04-02T10:27:55.063Z,36.82
2023-04-02T10:28:55.056Z,37.36
2023-04-02T10:29:55.072Z,38.67
2023-04-02T10:30:55.116Z,39.28
2023-04-02T10:31:55.118Z,39.37
2023-04-02T10:32:55.130Z,40.66
2023-04-02T10:33:55.147Z,41.88
2023-04-02T10:34:55.175Z,42.39
2023-04-02T10:35:55.246Z,43.13
2023-04-02T10:36:55.202Z,43.18
2023-04-02T10:37:55.191Z,41.51
2023-04-02T10:38:55.227Z,41.43
2023-04-02T10:39:55.253Z,42.18
2023-04-02T10:40:56.952Z,42.31
2023-04-02T10:41:55.203Z,43.88
2023-04-02T10:42:55.190Z,44.29
2023-04-02T10:43:55.906Z,43.38
2023-04-02T10:44:55.203Z,45.12
2023-04-02T10:45:55.226Z,45.78
2023-04-02T10:46:55.189Z,45.47
2023-04-02T10:47:55.230Z,45.63
2023-04-02T10:48:55.213Z,46.00
2023-04-02T10:49:55.174Z,46.43
2023-04-02T10:50:55.205Z,47.87
2023-04-02T10:51:55.184Z,47.51
2023-04-02T10:52:56.521Z,47.41
2023-04-02T10:53:55.294Z,47.89
2023-04-02T10:54:55.335Z,48.33
2023-04-02T10:55:55.396Z,49.24
2023-04-02T10:56:55.458Z,49.71
2023-04-02T10:57:55.441Z,49.21
2023-04-02T10:58:57.323Z,49.17
2023-04-02T10:59:55.517Z,49.18
2023-04-02T11:00:55.542Z,48.59
2023-04-02T11:01:55.639Z,48.25
2023-04-02T11:02:55.646Z,48.62
2023-04-02T11:03:57.874Z,48.84
2023-04-02T11:04:57.198Z,48.83
2023-04-02T11:05:56.969Z,47.53
2023-04-02T11:07:07.225Z,49.04
2023-04-02T11:07:55.709Z,48.30
2023-04-02T11:08:55.747Z,48.03
2023-04-02T11:09:55.698Z,47.15
2023-04-02T11:10:55.705Z,46.12
2023-04-02T11:11:55.687Z,45.84
2023-04-02T11:12:55.687Z,46.18
2023-04-02T11:13:55.672Z,47.10
2023-04-02T11:14:55.664Z,46.76
2023-04-02T11:15:55.722Z,45.44
2023-04-02T11:16:55.672Z,45.65
2023-04-02T11:17:55.712Z,45.24
2023-04-02T11:18:55.681Z,46.38
2023-04-02T11:19:55.655Z,46.90
2023-04-02T11:20:55.667Z,46.52
2023-04-02T11:21:59.375Z,46.63
2023-04-02T11:22:55.838Z,47.42
2023-04-02T11:23:55.640Z,46.03
2023-04-02T11:24:55.662Z,45.51
2023-04-02T11:25:55.632Z,46.05
2023-04-02T11:26:55.619Z,45.89
2023-04-02T11:27:55.601Z,46.99
2023-04-02T11:28:55.593Z,47.11
2023-04-02T11:29:55.590Z,45.19
2023-04-02T11:30:55.594Z,45.57
2023-04-02T11:31:55.615Z,44.62
2023-04-02T11:32:55.592Z,45.21
2023-04-02T11:33:55.561Z,45.73
2023-04-02T11:35:54.643Z,45.76
2023-04-02T11:36:55.541Z,44.21
2023-04-02T11:37:55.547Z,45.15
2023-04-02T11:39:04.428Z,45.31
2023-04-02T11:39:55.507Z,45.73
2023-04-02T11:40:55.530Z,45.67
2023-04-02T11:41:55.479Z,46.23
2023-04-02T11:42:55.465Z,46.18
2023-04-02T11:43:55.485Z,46.54
2023-04-02T11:44:55.460Z,45.73
2023-04-02T11:45:55.815Z,45.41
2023-04-02T11:46:55.548Z,44.57
2023-04-02T11:47:55.532Z,45.65
2023-04-02T11:48:55.472Z,45.10
2023-04-02T11:49:55.491Z,44.94
2023-04-02T11:50:55.464Z,44.81
2023-04-02T11:52:09.104Z,43.78
2023-04-02T11:52:55.452Z,44.77
2023-04-02T11:53:55.426Z,44.92
2023-04-02T11:54:55.432Z,44.84
2023-04-02T11:55:55.426Z,44.67
2023-04-02T11:56:55.467Z,44.98
2023-04-02T11:57:55.392Z,45.23
2023-04-02T11:58:55.382Z,44.07
2023-04-02T11:59:55.371Z,43.93
2023-04-02T12:00:55.359Z,43.26
2023-04-02T12:01:55.404Z,43.94
2023-04-02T12:02:55.793Z,44.59
2023-04-02T12:03:55.345Z,43.27
2023-04-02T12:04:55.366Z,44.62
2023-04-02T12:05:55.317Z,42.89
2023-04-02T12:06:55.301Z,43.74
2023-04-02T12:07:55.278Z,44.61
2023-04-02T12:08:58.091Z,43.38
2023-04-02T12:09:55.237Z,43.63
2023-04-02T12:10:55.213Z,44.24
2023-04-02T12:11:55.216Z,43.80
2023-04-02T12:12:55.201Z,42.90
2023-04-02T12:13:55.152Z,41.77
2023-04-02T12:14:55.130Z,42.63
2023-04-02T12:15:55.100Z,42.77
2023-04-02T12:16:55.120Z,44.34
2023-04-02T12:17:55.108Z,43.28
2023-04-02T12:18:55.048Z,40.97
2023-04-02T12:19:55.012Z,42.32
2023-04-02T12:20:55.012Z,41.97
2023-04-02T12:21:54.992Z,42.80
2023-04-02T12:22:54.970Z,43.10
2023-04-02T12:23:54.932Z,40.85
2023-04-02T12:24:54.913Z,41.64
2023-04-02T12:25:54.893Z,40.96
2023-04-02T12:26:54.856Z,40.26
2023-04-02T12:27:54.844Z,42.81
2023-04-02T12:28:54.853Z,42.37
2023-04-02T12:29:54.832Z,41.71
2023-04-02T12:30:54.870Z,40.83
2023-04-02T12:31:54.907Z,39.92
2023-04-02T12:32:54.851Z,40.23
2023-04-02T12:33:54.875Z,39.80
2023-04-02T12:34:54.835Z,39.99
2023-04-02T12:35:54.881Z,39.98
2023-04-02T12:36:54.872Z,40.72
2023-04-02T12:37:54.908Z,41.70
2023-04-02T12:38:54.919Z,42.94
2023-04-02T12:39:54.970Z,41.01
2023-04-02T12:40:54.940Z,39.89
2023-04-02T12:41:54.953Z,40.57
2023-04-02T12:42:54.965Z,41.80
2023-04-02T12:43:54.983Z,39.56
2023-04-02T12:44:55.034Z,40.36
2023-04-02T12:45:55.085Z,40.44
2023-04-02T12:46:54.996Z,40.85
2023-04-02T12:47:55.033Z,40.75
2023-04-02T12:48:55.044Z,41.73
2023-04-02T12:49:55.051Z,41.57
2023-04-02T12:50:55.076Z,40.64
2023-04-02T12:51:55.072Z,40.24
2023-04-02T12:52:55.166Z,40.29
2023-04-02T12:53:55.089Z,41.04